Terminal Aerodrome Forecast
Issued by NWS

Home | Current Version | Previous Version | Text Only | Print | Product List | Glossary On
Versions: 1 2 3 4 5 6 7 8 9 10 11 12 13 14 15 16
000
FTUS46 KMTR 090538
TAFSTS
TAF
KSTS 090538Z 0906/1006 VRB02KT 1SM -RA BR OVC003
     FM091200 00000KT 1/4SM FG VV002
     FM091800 VRB03KT 1SM BR OVC005
     FM092000 20004KT 3SM -RA BR SCT005 OVC010=

USA.gov is the U.S. government's official web portal to all federal, state and local government web resources and services.